Time;durP1;ratioP1;P1;durP2;ratioP2;P2;SDS_P1;SDS_P2;PMS_P1;PMS_P2;Temp;Humidity;BMP_temperature;BMP_pressure;BME280_temperature;BME280_humidity;BME280_pressure;Samples;Min_cycle;Max_cycle;Signal;HPM_P1;HPM_P2
2023/11/14 00:00:40;;;;;;;6.65;4.13;;;;;;;;;;5137891;27;20435;-73
2023/11/14 00:03:28;;;;;;;6.10;3.97;;;;;;;;;;5137366;27;20027;-71
2023/11/14 00:06:14;;;;;;;5.07;3.70;;;;;;;;;;5137833;27;20062;-71
2023/11/14 00:09:00;;;;;;;7.40;3.78;;;;;;;;;;5137426;27;20174;-71
2023/11/14 00:11:45;;;;;;;6.03;3.78;;;;;;;;;;5124190;27;20026;-70
2023/11/14 00:14:32;;;;;;;8.45;4.75;;;;;;;;;;5137395;27;20023;-71
2023/11/14 00:17:17;;;;;;;7.68;4.05;;;;;;;;;;5137608;27;20420;-72
2023/11/14 00:20:06;;;;;;;6.35;3.80;;;;;;;;;;5137188;27;20328;-69
2023/11/14 00:22:51;;;;;;;7.30;3.90;;;;;;;;;;5137001;27;20309;-72
2023/11/14 00:25:37;;;;;;;10.07;3.70;;;;;;;;;;5123813;27;20066;-70
2023/11/14 00:28:23;;;;;;;7.70;4.10;;;;;;;;;;5136879;27;20030;-71
2023/11/14 00:31:09;;;;;;;5.65;3.80;;;;;;;;;;5137045;27;20031;-71
2023/11/14 00:33:54;;;;;;;7.22;4.50;;;;;;;;;;5137126;27;20111;-70
2023/11/14 00:36:43;;;;;;;5.25;3.88;;;;;;;;;;5136459;27;20030;-72
2023/11/14 00:39:28;;;;;;;5.93;3.72;;;;;;;;;;5137455;27;20030;-71
2023/11/14 00:42:14;;;;;;;7.45;4.05;;;;;;;;;;5137214;27;20352;-71
2023/11/14 00:45:00;;;;;;;5.07;3.60;;;;;;;;;;5122182;27;20023;-69
2023/11/14 00:47:45;;;;;;;5.20;3.85;;;;;;;;;;5137315;27;20381;-72
2023/11/14 00:50:31;;;;;;;5.68;3.72;;;;;;;;;;5121112;27;20023;-71
2023/11/14 00:53:16;;;;;;;6.60;3.90;;;;;;;;;;5121531;27;20102;-72
2023/11/14 00:56:02;;;;;;;7.20;3.97;;;;;;;;;;5121005;27;20024;-72
2023/11/14 00:58:48;;;;;;;7.07;3.80;;;;;;;;;;5137500;27;20047;-72
2023/11/14 01:01:34;;;;;;;6.18;3.67;;;;;;;;;;5136959;27;20015;-73
2023/11/14 01:04:20;;;;;;;5.95;4.00;;;;;;;;;;5136003;27;20030;-70
2023/11/14 01:07:07;;;;;;;7.25;4.28;;;;;;;;;;5121946;27;20059;-71
2023/11/14 01:09:53;;;;;;;5.25;3.40;;;;;;;;;;5134903;27;20019;-72
2023/11/14 01:12:38;;;;;;;5.65;3.95;;;;;;;;;;5136368;27;20115;-71
2023/11/14 01:15:24;;;;;;;7.78;4.13;;;;;;;;;;5136121;27;20015;-71
2023/11/14 01:18:10;;;;;;;7.00;3.40;;;;;;;;;;5135751;27;20051;-70
2023/11/14 01:20:56;;;;;;;5.40;3.65;;;;;;;;;;5136041;27;20015;-72
2023/11/14 01:23:41;;;;;;;6.50;4.20;;;;;;;;;;5136488;27;20022;-71
2023/11/14 01:26:36;;;;;;;5.05;3.70;;;;;;;;;;5135423;27;20102;-70
2023/11/14 01:29:21;;;;;;;8.23;4.30;;;;;;;;;;5136113;27;20365;-71
2023/11/14 01:32:07;;;;;;;6.25;3.60;;;;;;;;;;5135831;27;20060;-71
2023/11/14 01:34:52;;;;;;;8.40;4.50;;;;;;;;;;5135516;27;20021;-70
2023/11/14 01:37:38;;;;;;;6.47;3.67;;;;;;;;;;5135492;27;20483;-70
2023/11/14 01:40:24;;;;;;;9.60;4.13;;;;;;;;;;5135552;27;20019;-69
2023/11/14 01:43:10;;;;;;;5.40;3.85;;;;;;;;;;5135519;27;20333;-70
2023/11/14 01:45:55;;;;;;;6.63;4.07;;;;;;;;;;5135663;27;20061;-70
2023/11/14 01:48:42;;;;;;;6.18;4.03;;;;;;;;;;5134936;27;20050;-70
2023/11/14 01:51:28;;;;;;;6.10;3.55;;;;;;;;;;5135207;27;20344;-69
2023/11/14 01:54:14;;;;;;;8.90;3.95;;;;;;;;;;5135095;27;20435;-69
2023/11/14 01:57:00;;;;;;;7.22;3.78;;;;;;;;;;5134410;27;20038;-70
2023/11/14 01:59:46;;;;;;;6.90;3.58;;;;;;;;;;5134970;27;20058;-71
2023/11/14 02:02:32;;;;;;;8.35;3.90;;;;;;;;;;5134606;27;20454;-70
2023/11/14 02:05:18;;;;;;;7.07;4.30;;;;;;;;;;5135842;27;20347;-70
2023/11/14 02:08:04;;;;;;;7.10;4.10;;;;;;;;;;5135564;27;20404;-70
2023/11/14 02:10:50;;;;;;;5.45;3.35;;;;;;;;;;5134877;27;20446;-71
2023/11/14 02:13:36;;;;;;;4.68;3.30;;;;;;;;;;5135060;27;20088;-70
2023/11/14 02:16:24;;;;;;;5.13;3.50;;;;;;;;;;5134743;27;20023;-71
2023/11/14 02:19:09;;;;;;;6.05;3.75;;;;;;;;;;5134988;27;20077;-71
2023/11/14 02:21:55;;;;;;;5.03;3.35;;;;;;;;;;5134481;27;20026;-72
2023/11/14 02:24:48;;;;;;;4.82;3.67;;;;;;;;;;5134884;27;20102;-70
2023/11/14 02:27:35;;;;;;;7.80;3.70;;;;;;;;;;5134749;27;20051;-71
2023/11/14 02:30:21;;;;;;;5.45;3.70;;;;;;;;;;5133622;27;20023;-72
2023/11/14 02:33:06;;;;;;;8.05;3.60;;;;;;;;;;5134254;27;20167;-71
2023/11/14 02:35:52;;;;;;;4.72;3.47;;;;;;;;;;5135197;27;20094;-70
2023/11/14 02:38:38;;;;;;;7.40;4.32;;;;;;;;;;5134741;27;20036;-69
2023/11/14 02:41:23;;;;;;;7.75;4.03;;;;;;;;;;5120058;27;20032;-71
2023/11/14 02:44:09;;;;;;;6.65;4.20;;;;;;;;;;5134902;27;20019;-69
2023/11/14 02:46:55;;;;;;;7.35;3.75;;;;;;;;;;5119283;28;20047;-70
2023/11/14 02:49:59;;;;;;;6.72;3.75;;;;;;;;;;5134547;28;20343;-72
2023/11/14 02:52:44;;;;;;;6.43;3.45;;;;;;;;;;5134745;28;20027;-71
2023/11/14 02:55:30;;;;;;;6.13;4.03;;;;;;;;;;5134960;28;20046;-70
2023/11/14 02:58:16;;;;;;;4.80;3.13;;;;;;;;;;5120201;28;20023;-70
2023/11/14 03:01:03;;;;;;;7.22;4.00;;;;;;;;;;5134361;28;20011;-71
2023/11/14 03:03:49;;;;;;;5.60;3.30;;;;;;;;;;5133726;28;20027;-71
2023/11/14 03:06:38;;;;;;;5.68;3.30;;;;;;;;;;5119889;28;20399;-70
2023/11/14 03:09:23;;;;;;;4.95;3.00;;;;;;;;;;5124114;27;20015;-70
2023/11/14 03:12:09;;;;;;;5.20;3.00;;;;;;;;;;5138388;27;20447;-71
2023/11/14 03:14:55;;;;;;;4.57;2.88;;;;;;;;;;5124052;27;20034;-71
2023/11/14 03:17:40;;;;;;;4.57;2.50;;;;;;;;;;5122928;27;20024;-70
2023/11/14 03:20:26;;;;;;;4.97;3.17;;;;;;;;;;5137654;27;20023;-70
2023/11/14 03:23:12;;;;;;;5.25;2.60;;;;;;;;;;5122807;27;20030;-71
2023/11/14 03:25:57;;;;;;;3.70;2.40;;;;;;;;;;5122968;27;20073;-70
2023/11/14 03:28:43;;;;;;;4.25;2.53;;;;;;;;;;5137501;27;20075;-71
2023/11/14 03:31:29;;;;;;;5.18;3.03;;;;;;;;;;5123533;27;20023;-70
2023/11/14 03:34:15;;;;;;;5.88;2.90;;;;;;;;;;5124791;27;20340;-70
2023/11/14 03:37:00;;;;;;;6.15;3.30;;;;;;;;;;5137804;27;20102;-69
2023/11/14 03:39:48;;;;;;;6.53;3.10;;;;;;;;;;5123886;27;20024;-71
2023/11/14 03:42:34;;;;;;;8.10;3.20;;;;;;;;;;5138005;27;20012;-69
2023/11/14 03:45:19;;;;;;;9.57;3.33;;;;;;;;;;5138022;27;20019;-70
2023/11/14 03:48:05;;;;;;;7.55;4.65;;;;;;;;;;5137479;27;20110;-71
2023/11/14 03:50:50;;;;;;;9.18;3.97;;;;;;;;;;5137651;27;20022;-71
2023/11/14 03:53:37;;;;;;;4.50;2.80;;;;;;;;;;5137698;27;20039;-72
2023/11/14 03:56:22;;;;;;;5.72;2.50;;;;;;;;;;5123084;27;20023;-69
2023/11/14 03:59:08;;;;;;;7.85;2.85;;;;;;;;;;5138291;27;20020;-70
2023/11/14 04:01:54;;;;;;;5.13;2.70;;;;;;;;;;5122012;27;20016;-69
2023/11/14 04:04:39;;;;;;;3.88;2.35;;;;;;;;;;5137720;27;20029;-69
2023/11/14 04:07:25;;;;;;;4.18;2.40;;;;;;;;;;5135945;27;20023;-69
2023/11/14 04:10:12;;;;;;;5.00;3.10;;;;;;;;;;5123563;27;20015;-71
2023/11/14 04:12:58;;;;;;;4.78;2.30;;;;;;;;;;5122950;27;20384;-71
2023/11/14 04:15:44;;;;;;;6.82;3.00;;;;;;;;;;5137649;27;20027;-70
2023/11/14 04:18:30;;;;;;;5.88;2.85;;;;;;;;;;5135688;27;20045;-69
2023/11/14 04:21:19;;;;;;;5.25;2.78;;;;;;;;;;5136366;27;20061;-70
2023/11/14 04:24:05;;;;;;;4.75;3.03;;;;;;;;;;5121833;27;20038;-69
2023/11/14 04:26:51;;;;;;;7.68;3.20;;;;;;;;;;5137265;27;20027;-70
2023/11/14 04:29:37;;;;;;;5.35;3.17;;;;;;;;;;5136192;27;20038;-69
2023/11/14 04:32:23;;;;;;;6.45;3.28;;;;;;;;;;5137985;27;20424;-70
2023/11/14 04:35:08;;;;;;;8.32;3.42;;;;;;;;;;5122411;27;20216;-71
2023/11/14 04:37:56;;;;;;;5.88;3.00;;;;;;;;;;5136377;27;20087;-71
2023/11/14 04:40:42;;;;;;;7.20;3.30;;;;;;;;;;5136615;27;20034;-72
2023/11/14 04:43:27;;;;;;;5.43;3.22;;;;;;;;;;5120959;27;20388;-71
2023/11/14 04:46:13;;;;;;;5.30;3.53;;;;;;;;;;5121781;27;20443;-71
2023/11/14 04:48:58;;;;;;;10.68;4.10;;;;;;;;;;5136121;27;20159;-71
2023/11/14 04:51:44;;;;;;;8.75;4.07;;;;;;;;;;5135801;27;20447;-70
2023/11/14 04:54:29;;;;;;;15.40;7.13;;;;;;;;;;5136137;27;20111;-72
2023/11/14 04:57:15;;;;;;;11.73;7.90;;;;;;;;;;5135731;27;20106;-69
2023/11/14 05:00:02;;;;;;;12.05;8.15;;;;;;;;;;5136096;27;20015;-72
2023/11/14 05:02:47;;;;;;;13.32;8.95;;;;;;;;;;5136765;27;20015;-70
2023/11/14 05:05:34;;;;;;;19.33;11.25;;;;;;;;;;5135513;27;20020;-70
2023/11/14 05:08:19;;;;;;;19.45;13.00;;;;;;;;;;5136128;27;20116;-71
2023/11/14 05:11:06;;;;;;;18.95;11.93;;;;;;;;;;5133213;27;20055;-70
2023/11/14 05:13:52;;;;;;;19.05;11.30;;;;;;;;;;5116297;28;20077;-70
2023/11/14 05:16:40;;;;;;;19.05;10.90;;;;;;;;;;5115181;28;20047;-70
2023/11/14 05:19:29;;;;;;;14.98;9.18;;;;;;;;;;5115033;28;20020;-72
2023/11/14 05:22:15;;;;;;;15.00;8.90;;;;;;;;;;5113622;28;20016;-68
2023/11/14 05:25:00;;;;;;;16.38;9.52;;;;;;;;;;5115078;28;20352;-69
2023/11/14 05:27:46;;;;;;;13.45;8.85;;;;;;;;;;5115023;28;20015;-71
2023/11/14 05:30:32;;;;;;;16.92;8.95;;;;;;;;;;5114012;28;20049;-72
2023/11/14 05:33:17;;;;;;;17.05;10.40;;;;;;;;;;5114849;28;20402;-70
2023/11/14 05:36:03;;;;;;;14.93;9.25;;;;;;;;;;5115939;28;20023;-71
2023/11/14 05:38:49;;;;;;;18.92;9.95;;;;;;;;;;5115579;28;20030;-71
2023/11/14 05:41:36;;;;;;;17.10;10.48;;;;;;;;;;5115987;28;20016;-71
2023/11/14 05:44:22;;;;;;;16.02;9.15;;;;;;;;;;5115462;28;20448;-72
2023/11/14 05:47:07;;;;;;;14.30;8.38;;;;;;;;;;5114703;28;20098;-70
2023/11/14 05:49:53;;;;;;;16.95;8.82;;;;;;;;;;5114642;28;20400;-71
2023/11/14 05:52:51;;;;;;;14.50;8.48;;;;;;;;;;5112773;27;20670;-70
2023/11/14 05:55:37;;;;;;;14.18;8.77;;;;;;;;;;5109530;28;20046;-71
2023/11/14 05:58:23;;;;;;;20.17;10.60;;;;;;;;;;5131809;28;20098;-71
2023/11/14 06:01:10;;;;;;;19.20;10.68;;;;;;;;;;5148498;27;20019;-70
2023/11/14 06:03:55;;;;;;;20.80;9.63;;;;;;;;;;5153144;27;20178;-71
2023/11/14 06:06:41;;;;;;;18.00;8.55;;;;;;;;;;5152233;27;20022;-71
2023/11/14 06:09:27;;;;;;;13.93;7.57;;;;;;;;;;5138825;27;20404;-71
2023/11/14 06:12:12;;;;;;;15.93;8.10;;;;;;;;;;5152000;27;20450;-72
2023/11/14 06:14:58;;;;;;;19.27;9.50;;;;;;;;;;5152544;27;20041;-72
2023/11/14 06:17:44;;;;;;;18.90;10.02;;;;;;;;;;5137569;27;20042;-71
2023/11/14 06:20:30;;;;;;;20.10;8.60;;;;;;;;;;5152384;27;20431;-72
2023/11/14 06:23:18;;;;;;;20.95;8.15;;;;;;;;;;5151898;27;20023;-71
2023/11/14 06:26:04;;;;;;;17.65;8.93;;;;;;;;;;5153358;27;20030;-70
2023/11/14 06:28:50;;;;;;;20.15;6.68;;;;;;;;;;5152031;27;20026;-71
2023/11/14 06:31:35;;;;;;;17.23;7.68;;;;;;;;;;5151358;27;20039;-70
2023/11/14 06:34:21;;;;;;;16.15;5.80;;;;;;;;;;5137854;27;20073;-71
2023/11/14 06:37:06;;;;;;;7.70;4.72;;;;;;;;;;5152552;27;20023;-71
2023/11/14 06:39:52;;;;;;;21.17;5.80;;;;;;;;;;5151615;27;20031;-71
2023/11/14 06:42:41;;;;;;;10.25;4.78;;;;;;;;;;5136982;27;20034;-70
2023/11/14 06:45:26;;;;;;;11.82;5.95;;;;;;;;;;5151640;27;20452;-70
2023/11/14 06:48:12;;;;;;;12.45;6.13;;;;;;;;;;5150996;27;20038;-73
2023/11/14 06:50:57;;;;;;;16.85;7.20;;;;;;;;;;5138014;27;20043;-71
2023/11/14 06:53:46;;;;;;;14.95;6.13;;;;;;;;;;5136109;27;20023;-71
2023/11/14 06:56:31;;;;;;;19.70;6.90;;;;;;;;;;5152054;27;20015;-72
2023/11/14 06:59:17;;;;;;;11.63;6.50;;;;;;;;;;5136987;27;20023;-71
2023/11/14 07:02:05;;;;;;;18.27;7.45;;;;;;;;;;5135547;27;20031;-70
2023/11/14 07:04:51;;;;;;;16.58;7.88;;;;;;;;;;5124071;27;20039;-71
2023/11/14 07:07:39;;;;;;;16.15;7.82;;;;;;;;;;5137520;27;20454;-71
2023/11/14 07:10:24;;;;;;;12.93;7.20;;;;;;;;;;5138008;27;20034;-71
2023/11/14 07:13:10;;;;;;;14.98;8.18;;;;;;;;;;5136746;27;20435;-71
2023/11/14 07:15:55;;;;;;;19.90;9.32;;;;;;;;;;5123457;27;20023;-72
2023/11/14 07:18:41;;;;;;;19.42;9.35;;;;;;;;;;5122723;27;20180;-70
2023/11/14 07:21:32;;;;;;;19.58;10.65;;;;;;;;;;5135864;27;20046;-71
2023/11/14 07:24:18;;;;;;;20.55;11.15;;;;;;;;;;5123057;27;20068;-72
2023/11/14 07:27:05;;;;;;;15.23;9.60;;;;;;;;;;5137676;27;20023;-72
2023/11/14 07:29:51;;;;;;;19.98;7.90;;;;;;;;;;5137066;27;20031;-71
2023/11/14 07:32:36;;;;;;;16.80;8.02;;;;;;;;;;5137394;27;20046;-71
2023/11/14 07:35:23;;;;;;;20.70;9.15;;;;;;;;;;5137086;27;20143;-72
2023/11/14 07:38:09;;;;;;;19.67;10.13;;;;;;;;;;5136006;27;20080;-71
2023/11/14 07:40:54;;;;;;;16.00;9.15;;;;;;;;;;5137836;27;20366;-72
2023/11/14 07:43:41;;;;;;;23.92;10.02;;;;;;;;;;5138671;27;20115;-72
2023/11/14 07:46:26;;;;;;;23.90;10.90;;;;;;;;;;5137850;27;20023;-71
2023/11/14 07:49:12;;;;;;;42.38;11.48;;;;;;;;;;5137560;27;20019;-71
2023/11/14 07:51:58;;;;;;;30.25;11.35;;;;;;;;;;5121616;27;20039;-71
2023/11/14 07:54:44;;;;;;;16.20;7.25;;;;;;;;;;5135818;27;20034;-72
2023/11/14 07:57:30;;;;;;;18.27;8.60;;;;;;;;;;5121228;27;20026;-70
2023/11/14 08:00:16;;;;;;;14.02;7.40;;;;;;;;;;5136168;27;20431;-72
2023/11/14 08:03:03;;;;;;;12.10;6.90;;;;;;;;;;5136627;27;20054;-72
2023/11/14 08:05:48;;;;;;;10.05;5.55;;;;;;;;;;5120363;27;20023;-71
2023/11/14 08:08:35;;;;;;;10.90;5.35;;;;;;;;;;5136476;27;20344;-71
2023/11/14 08:11:20;;;;;;;13.70;5.65;;;;;;;;;;5135650;27;20027;-71
2023/11/14 08:14:06;;;;;;;9.02;4.85;;;;;;;;;;5135918;27;20419;-71
2023/11/14 08:16:52;;;;;;;9.43;4.63;;;;;;;;;;5121691;27;20020;-71
2023/11/14 08:19:37;;;;;;;8.75;4.60;;;;;;;;;;5135948;27;20015;-71
2023/11/14 08:22:23;;;;;;;8.55;4.13;;;;;;;;;;5135699;27;20019;-71
2023/11/14 08:25:09;;;;;;;10.80;4.78;;;;;;;;;;5136149;27;20023;-71
2023/11/14 08:27:55;;;;;;;10.27;5.50;;;;;;;;;;5135272;27;20035;-71
2023/11/14 08:30:41;;;;;;;11.98;5.47;;;;;;;;;;5120514;27;20025;-71
2023/11/14 08:33:26;;;;;;;12.27;5.00;;;;;;;;;;5134649;27;20033;-71
2023/11/14 08:36:12;;;;;;;14.13;5.32;;;;;;;;;;5135620;27;20087;-72
2023/11/14 08:38:58;;;;;;;8.07;4.65;;;;;;;;;;5135344;27;20019;-70
2023/11/14 08:41:43;;;;;;;10.93;4.90;;;;;;;;;;5121993;27;20034;-71
2023/11/14 08:44:29;;;;;;;9.07;4.68;;;;;;;;;;5136161;27;20023;-71
2023/11/14 08:47:15;;;;;;;9.15;4.60;;;;;;;;;;5135359;27;20015;-72
2023/11/14 08:50:00;;;;;;;7.05;4.03;;;;;;;;;;5135139;27;20035;-71
2023/11/14 08:52:46;;;;;;;7.55;4.15;;;;;;;;;;5119598;27;20050;-72
2023/11/14 08:55:31;;;;;;;6.80;4.38;;;;;;;;;;5134900;27;20026;-72
2023/11/14 08:58:17;;;;;;;22.85;5.20;;;;;;;;;;5135603;27;20110;-71
2023/11/14 09:01:04;;;;;;;8.70;3.88;;;;;;;;;;5134514;27;20020;-71
2023/11/14 09:03:49;;;;;;;9.25;4.22;;;;;;;;;;5135402;27;20467;-71
2023/11/14 09:06:36;;;;;;;21.90;5.10;;;;;;;;;;5134169;27;20106;-71
2023/11/14 09:09:21;;;;;;;7.78;3.80;;;;;;;;;;5135421;27;20034;-72
2023/11/14 09:12:07;;;;;;;9.23;3.83;;;;;;;;;;5120839;27;20459;-70
2023/11/14 09:14:53;;;;;;;5.28;3.13;;;;;;;;;;5134951;27;20108;-71
2023/11/14 09:17:39;;;;;;;5.15;2.88;;;;;;;;;;5134707;27;20115;-70
2023/11/14 09:20:25;;;;;;;10.52;2.97;;;;;;;;;;5134748;27;20148;-71
2023/11/14 09:23:11;;;;;;;6.97;2.70;;;;;;;;;;5134021;27;20030;-72
2023/11/14 09:25:56;;;;;;;15.15;3.50;;;;;;;;;;5134620;27;20011;-72
2023/11/14 09:28:42;;;;;;;8.43;2.90;;;;;;;;;;5134514;27;20025;-71
2023/11/14 09:31:28;;;;;;;4.63;2.28;;;;;;;;;;5134493;27;20091;-71
2023/11/14 09:34:13;;;;;;;6.80;2.35;;;;;;;;;;5120837;27;20053;-71
2023/11/14 09:36:59;;;;;;;4.60;2.20;;;;;;;;;;5135192;27;20011;-72
2023/11/14 09:39:44;;;;;;;11.85;4.93;;;;;;;;;;5133704;27;20015;-70
2023/11/14 09:42:30;;;;;;;15.60;4.55;;;;;;;;;;5119963;27;20027;-71
2023/11/14 09:45:18;;;;;;;7.53;3.58;;;;;;;;;;5133993;27;20020;-71
2023/11/14 09:48:08;;;;;;;17.45;3.60;;;;;;;;;;5134069;27;20027;-69
2023/11/14 09:50:54;;;;;;;5.40;3.00;;;;;;;;;;5133449;28;20050;-69
2023/11/14 09:53:41;;;;;;;7.80;3.25;;;;;;;;;;5133194;28;20080;-70
2023/11/14 09:56:26;;;;;;;6.00;2.70;;;;;;;;;;5133741;28;20443;-69
2023/11/14 09:59:12;;;;;;;10.82;2.63;;;;;;;;;;5134067;28;20031;-69
2023/11/14 10:01:58;;;;;;;6.03;2.00;;;;;;;;;;5133295;28;20102;-69
2023/11/14 10:04:44;;;;;;;10.23;2.50;;;;;;;;;;5118999;28;20034;-69
2023/11/14 10:07:30;;;;;;;3.17;1.90;;;;;;;;;;5133958;28;20051;-69
2023/11/14 10:10:16;;;;;;;3.97;1.70;;;;;;;;;;5133653;28;20046;-68
2023/11/14 10:13:02;;;;;;;7.93;2.22;;;;;;;;;;5134295;28;20020;-69
2023/11/14 10:15:47;;;;;;;5.03;1.90;;;;;;;;;;5134002;28;20451;-69
2023/11/14 10:18:33;;;;;;;5.63;2.10;;;;;;;;;;5120102;28;20024;-69
2023/11/14 10:21:25;;;;;;;3.65;1.90;;;;;;;;;;5133466;28;20027;-69
2023/11/14 10:24:12;;;;;;;4.22;1.80;;;;;;;;;;5134357;28;20019;-70
2023/11/14 10:26:59;;;;;;;4.97;1.80;;;;;;;;;;5134072;28;20344;-69
2023/11/14 10:29:51;;;;;;;9.05;1.92;;;;;;;;;;5133758;28;20035;-69
2023/11/14 10:32:37;;;;;;;3.90;1.58;;;;;;;;;;5115994;28;20058;-69
2023/11/14 10:35:23;;;;;;;2.80;1.90;;;;;;;;;;5133968;28;20011;-70
2023/11/14 10:38:17;;;;;;;5.05;1.80;;;;;;;;;;5134813;27;20388;-69
2023/11/14 10:41:03;;;;;;;4.32;2.00;;;;;;;;;;5137451;27;20023;-71
2023/11/14 10:43:49;;;;;;;3.75;2.10;;;;;;;;;;5137288;27;20030;-70
2023/11/14 10:46:35;;;;;;;4.97;2.17;;;;;;;;;;5128410;27;20119;-70
2023/11/14 10:49:23;;;;;;;3.38;1.92;;;;;;;;;;5137514;27;20363;-69
2023/11/14 10:52:09;;;;;;;3.42;1.70;;;;;;;;;;5137038;27;20058;-69
2023/11/14 10:54:55;;;;;;;5.43;1.67;;;;;;;;;;5137233;27;20050;-70
2023/11/14 10:57:40;;;;;;;3.92;1.90;;;;;;;;;;5136690;27;20023;-69
2023/11/14 11:00:27;;;;;;;4.78;1.67;;;;;;;;;;5136047;27;20012;-71
2023/11/14 11:03:13;;;;;;;5.90;1.67;;;;;;;;;;5136862;27;20130;-70
2023/11/14 11:05:59;;;;;;;5.80;2.17;;;;;;;;;;5137188;27;20042;-70
2023/11/14 11:08:44;;;;;;;3.70;1.90;;;;;;;;;;5123364;27;20034;-72
2023/11/14 11:11:32;;;;;;;3.00;2.05;;;;;;;;;;5136729;27;20110;-70
2023/11/14 11:14:19;;;;;;;3.10;1.80;;;;;;;;;;5137359;27;20023;-71
2023/11/14 11:17:04;;;;;;;5.70;2.40;;;;;;;;;;5136447;27;20016;-70
2023/11/14 11:19:53;;;;;;;3.33;2.10;;;;;;;;;;5137397;27;20088;-71
2023/11/14 11:22:57;;;;;;;5.40;2.45;;;;;;;;;;5137370;27;20035;-70
2023/11/14 11:25:44;;;;;;;3.88;2.22;;;;;;;;;;5136980;27;20155;-69
2023/11/14 11:28:35;;;;;;;6.43;2.15;;;;;;;;;;5136908;27;20019;-71
2023/11/14 11:31:24;;;;;;;18.05;3.20;;;;;;;;;;5121351;27;20105;-71
2023/11/14 11:34:26;;;;;;;12.32;2.65;;;;;;;;;;5136390;27;20019;-70
2023/11/14 11:37:31;;;;;;;15.30;2.20;;;;;;;;;;5121404;27;20098;-69
2023/11/14 11:40:27;;;;;;;14.55;2.17;;;;;;;;;;5136234;27;20469;-71
2023/11/14 11:43:13;;;;;;;10.05;2.20;;;;;;;;;;5122697;27;20084;-70
2023/11/14 11:45:58;;;;;;;9.73;2.25;;;;;;;;;;5136514;27;20030;-70
2023/11/14 11:48:44;;;;;;;7.72;2.42;;;;;;;;;;5136103;27;20019;-70
2023/11/14 11:51:30;;;;;;;5.95;2.85;;;;;;;;;;5135699;27;20475;-70
2023/11/14 11:54:24;;;;;;;10.70;2.72;;;;;;;;;;5135939;27;20088;-70
2023/11/14 11:57:10;;;;;;;8.75;2.30;;;;;;;;;;5136131;27;20404;-70
2023/11/14 11:59:59;;;;;;;8.77;2.20;;;;;;;;;;5136064;27;20094;-70
2023/11/14 12:02:45;;;;;;;7.72;2.17;;;;;;;;;;5136734;27;20023;-70
2023/11/14 12:05:31;;;;;;;6.82;2.30;;;;;;;;;;5135104;27;20024;-70
2023/11/14 12:08:17;;;;;;;4.32;2.08;;;;;;;;;;5135463;27;20037;-69
2023/11/14 12:11:03;;;;;;;4.95;2.25;;;;;;;;;;5136054;27;20027;-69
2023/11/14 12:13:54;;;;;;;3.70;1.85;;;;;;;;;;5121269;27;20094;-69
2023/11/14 12:16:39;;;;;;;4.72;1.77;;;;;;;;;;5121846;27;20362;-68
2023/11/14 12:19:25;;;;;;;4.13;1.85;;;;;;;;;;5135890;27;20132;-66
2023/11/14 12:22:11;;;;;;;6.72;1.77;;;;;;;;;;5135102;27;20019;-66
2023/11/14 12:24:57;;;;;;;3.83;1.75;;;;;;;;;;5136278;27;20019;-67
2023/11/14 12:27:57;;;;;;;4.57;1.60;;;;;;;;;;5135057;27;20047;-66
2023/11/14 12:30:59;;;;;;;2.53;1.38;;;;;;;;;;5134857;27;20367;-68
2023/11/14 12:33:45;;;;;;;2.95;1.63;;;;;;;;;;5120728;27;20466;-69
2023/11/14 12:36:33;;;;;;;4.20;1.35;;;;;;;;;;5134630;27;20015;-68
2023/11/14 12:39:19;;;;;;;5.20;1.70;;;;;;;;;;5121030;27;20110;-67
2023/11/14 12:42:05;;;;;;;4.15;1.58;;;;;;;;;;5134380;27;20019;-68
2023/11/14 12:44:52;;;;;;;6.72;1.80;;;;;;;;;;5135383;27;20055;-69
2023/11/14 12:47:41;;;;;;;4.10;1.60;;;;;;;;;;5135175;27;20457;-68
2023/11/14 12:50:32;;;;;;;3.20;1.13;;;;;;;;;;5134443;27;20046;-69
2023/11/14 12:53:17;;;;;;;2.80;1.40;;;;;;;;;;5128681;27;20027;-67
2023/11/14 12:56:03;;;;;;;3.72;1.70;;;;;;;;;;5134629;27;20084;-66
2023/11/14 12:58:49;;;;;;;3.67;1.60;;;;;;;;;;5119589;27;20492;-67
2023/11/14 13:01:35;;;;;;;3.45;1.35;;;;;;;;;;5133863;27;20027;-68
2023/11/14 13:04:21;;;;;;;5.13;1.40;;;;;;;;;;5134373;27;20124;-66
2023/11/14 13:07:07;;;;;;;6.60;1.60;;;;;;;;;;5120106;27;20030;-66
2023/11/14 13:09:53;;;;;;;5.13;1.58;;;;;;;;;;5134441;27;20023;-67
2023/11/14 13:12:39;;;;;;;3.78;1.70;;;;;;;;;;5119372;27;20438;-67
2023/11/14 13:15:24;;;;;;;3.20;1.33;;;;;;;;;;5113914;28;20032;-69
2023/11/14 13:18:10;;;;;;;3.30;1.67;;;;;;;;;;5114204;28;20016;-69
2023/11/14 13:20:56;;;;;;;5.43;1.73;;;;;;;;;;5100207;28;20030;-69
2023/11/14 13:23:42;;;;;;;6.38;1.90;;;;;;;;;;5114445;28;20020;-70
2023/11/14 13:26:28;;;;;;;4.43;1.58;;;;;;;;;;5114098;28;20091;-70
2023/11/14 13:29:14;;;;;;;3.90;1.67;;;;;;;;;;5113907;28;20401;-70
2023/11/14 13:31:59;;;;;;;2.63;1.40;;;;;;;;;;5114316;28;20496;-69
2023/11/14 13:34:45;;;;;;;3.95;2.00;;;;;;;;;;5099460;28;20360;-70
2023/11/14 13:37:31;;;;;;;3.45;1.65;;;;;;;;;;5113359;28;20466;-70
2023/11/14 13:40:17;;;;;;;3.08;1.52;;;;;;;;;;5099429;28;20024;-69
2023/11/14 13:43:03;;;;;;;2.78;1.65;;;;;;;;;;5113635;28;20031;-69
2023/11/14 13:45:52;;;;;;;3.53;1.70;;;;;;;;;;5114758;28;20051;-69
2023/11/14 13:48:37;;;;;;;4.78;1.90;;;;;;;;;;5124711;27;20015;-69
2023/11/14 13:51:23;;;;;;;2.30;1.52;;;;;;;;;;5132974;28;20050;-70
2023/11/14 13:54:13;;;;;;;6.07;2.90;;;;;;;;;;5133522;28;20454;-69
2023/11/14 13:56:59;;;;;;;5.60;2.40;;;;;;;;;;5133592;28;20019;-70
2023/11/14 13:59:45;;;;;;;6.57;2.33;;;;;;;;;;5118187;28;20015;-69
2023/11/14 14:02:31;;;;;;;2.58;1.60;;;;;;;;;;5133755;28;20123;-72
2023/11/14 14:05:18;;;;;;;3.45;1.80;;;;;;;;;;5133447;28;20034;-71
2023/11/14 14:08:04;;;;;;;4.10;1.77;;;;;;;;;;5134145;28;20030;-70
2023/11/14 14:11:00;;;;;;;5.55;1.60;;;;;;;;;;5133704;28;20015;-71
2023/11/14 14:13:46;;;;;;;3.33;1.90;;;;;;;;;;5137328;27;20023;-72
2023/11/14 14:16:32;;;;;;;6.10;2.75;;;;;;;;;;5137917;27;20015;-70
2023/11/14 14:19:17;;;;;;;5.45;1.75;;;;;;;;;;5138011;27;20069;-71
2023/11/14 14:22:03;;;;;;;5.55;1.63;;;;;;;;;;5138139;27;20015;-72
2023/11/14 14:24:50;;;;;;;4.68;1.50;;;;;;;;;;5137904;27;20023;-74
2023/11/14 14:27:36;;;;;;;6.85;2.10;;;;;;;;;;5138111;27;20023;-71
2023/11/14 14:30:22;;;;;;;2.45;1.83;;;;;;;;;;5137692;27;20035;-71
2023/11/14 14:33:07;;;;;;;4.45;2.40;;;;;;;;;;5122050;27;20083;-72
2023/11/14 14:35:53;;;;;;;4.82;2.00;;;;;;;;;;5138083;27;20023;-71
2023/11/14 14:38:39;;;;;;;4.38;2.00;;;;;;;;;;5123317;27;20023;-71
2023/11/14 14:41:24;;;;;;;3.58;1.85;;;;;;;;;;5122111;27;20019;-74
2023/11/14 14:44:12;;;;;;;4.75;2.00;;;;;;;;;;5137246;27;20459;-68
2023/11/14 14:46:58;;;;;;;4.68;2.20;;;;;;;;;;5137732;27;20023;-73
2023/11/14 14:49:44;;;;;;;6.28;2.30;;;;;;;;;;5116962;27;20034;-71
2023/11/14 14:52:29;;;;;;;8.02;2.40;;;;;;;;;;5117132;28;20105;-72
2023/11/14 14:55:15;;;;;;;9.00;2.50;;;;;;;;;;5116216;28;20103;-70
2023/11/14 14:58:03;;;;;;;3.53;2.13;;;;;;;;;;5102744;28;20043;-68
2023/11/14 15:00:49;;;;;;;10.57;2.78;;;;;;;;;;5102709;28;20119;-70
2023/11/14 15:03:34;;;;;;;9.02;2.45;;;;;;;;;;5117198;28;20038;-70
2023/11/14 15:06:20;;;;;;;10.65;2.97;;;;;;;;;;5116653;28;20026;-70
2023/11/14 15:09:08;;;;;;;23.58;3.90;;;;;;;;;;5101841;28;20028;-69
2023/11/14 15:11:54;;;;;;;10.18;3.40;;;;;;;;;;5116712;28;20024;-69
2023/11/14 15:14:39;;;;;;;16.27;4.10;;;;;;;;;;5116572;28;20047;-69
2023/11/14 15:17:25;;;;;;;7.80;3.75;;;;;;;;;;5115749;28;20016;-69
2023/11/14 15:20:14;;;;;;;12.05;4.75;;;;;;;;;;5116291;28;20347;-70
2023/11/14 15:23:01;;;;;;;21.25;6.00;;;;;;;;;;5115691;28;20043;-72
2023/11/14 15:25:47;;;;;;;16.80;5.90;;;;;;;;;;5116909;28;20038;-72
2023/11/14 15:28:33;;;;;;;13.68;5.63;;;;;;;;;;5118237;28;20352;-73
2023/11/14 15:31:19;;;;;;;18.33;6.32;;;;;;;;;;5117950;28;20031;-71
2023/11/14 15:34:04;;;;;;;19.15;6.30;;;;;;;;;;5122010;27;20443;-73
2023/11/14 15:36:50;;;;;;;21.40;6.15;;;;;;;;;;5137071;27;20446;-71
2023/11/14 15:39:36;;;;;;;13.10;5.03;;;;;;;;;;5137386;27;20030;-71
2023/11/14 15:42:22;;;;;;;16.92;5.28;;;;;;;;;;5136112;27;20019;-72
2023/11/14 15:45:07;;;;;;;15.55;4.75;;;;;;;;;;5136995;27;20035;-74
2023/11/14 15:47:53;;;;;;;9.88;5.13;;;;;;;;;;5133546;27;20050;-73
2023/11/14 15:50:39;;;;;;;11.20;4.72;;;;;;;;;;5114856;28;20039;-71
2023/11/14 15:53:27;;;;;;;13.30;4.35;;;;;;;;;;5103695;28;20379;-74
2023/11/14 15:56:14;;;;;;;11.73;4.20;;;;;;;;;;5116034;28;20043;-75
2023/11/14 15:59:00;;;;;;;15.75;6.40;;;;;;;;;;5116057;28;20084;-75
2023/11/14 16:01:45;;;;;;;10.68;4.45;;;;;;;;;;5115035;28;20363;-75
2023/11/14 16:04:31;;;;;;;11.15;5.30;;;;;;;;;;5116160;28;20033;-75
2023/11/14 16:07:17;;;;;;;16.67;5.20;;;;;;;;;;5115697;28;20035;-74
2023/11/14 16:10:03;;;;;;;15.40;6.20;;;;;;;;;;5116196;28;20389;-75
2023/11/14 16:12:49;;;;;;;20.85;6.15;;;;;;;;;;5100709;28;20019;-74
2023/11/14 16:15:34;;;;;;;17.25;7.43;;;;;;;;;;5117398;28;20061;-76
2023/11/14 16:18:20;;;;;;;19.73;8.18;;;;;;;;;;5103108;28;20015;-75
2023/11/14 16:21:06;;;;;;;17.63;7.50;;;;;;;;;;5115366;28;20035;-74
2023/11/14 16:23:55;;;;;;;15.07;7.72;;;;;;;;;;5121228;28;20039;-75
2023/11/14 16:26:40;;;;;;;14.85;7.63;;;;;;;;;;5117368;28;20015;-75
2023/11/14 16:29:26;;;;;;;18.65;7.93;;;;;;;;;;5116334;28;20143;-73
2023/11/14 16:32:13;;;;;;;13.73;7.65;;;;;;;;;;5115579;28;20436;-74